SBI1357 UHMP-UNNT
Flight info
| Callsign | SBI1357 |
|---|---|
| Flight time | N/A |
| Altitude | 36000 |
| Route | BALIL DCT AGURI DCT ATROD DCT BODKU DCT AKEBA M188 OLEMU R27 CE R116 TOKMO A300 NN G829 REGMI |
| Aircraft | A20N/M-SDE2E3FGHIJ1RWYZ/L |
Departure
| Time | 2026-05-04 07:10 |
|---|---|
| Airport | Pevek Airport (UHMP) |
Arrival
| Time | N/A |
|---|---|
| Airport | Novosibirsk Tolmachevo Airport (UNNT) |
| Time | Latitude | Longitude | Altitude | Speed | Heading |
|---|---|---|---|---|---|
| 2026-05-04 06:50 | 69.78878 | 170.59940 | 0 ft | 0 kts | 77° |
| 2026-05-04 07:02 | 69.78879 | 170.59952 | 0 ft | 1 kts | 77° |
| 2026-05-04 07:02 | 69.78880 | 170.59984 | 0 ft | 1 kts | 106° |
| 2026-05-04 07:02 | 69.78867 | 170.60001 | 0 ft | 2 kts | 191° |
| 2026-05-04 07:02 | 69.78850 | 170.59949 | 0 ft | 4 kts | 244° |
| 2026-05-04 07:03 | 69.78840 | 170.59853 | 0 ft | 5 kts | 258° |
| 2026-05-04 07:03 | 69.78830 | 170.59729 | 0 ft | 6 kts | 257° |
| 2026-05-04 07:03 | 69.78818 | 170.59582 | 0 ft | 8 kts | 257° |
| 2026-05-04 07:03 | 69.78794 | 170.59427 | 0 ft | 8 kts | 217° |
| 2026-05-04 07:04 | 69.78732 | 170.59428 | 1 ft | 10 kts | 167° |
| 2026-05-04 07:04 | 69.78661 | 170.59479 | 1 ft | 10 kts | 167° |
| 2026-05-04 07:04 | 69.78584 | 170.59529 | 1 ft | 11 kts | 167° |
| 2026-05-04 07:04 | 69.78503 | 170.59582 | 1 ft | 12 kts | 167° |
| 2026-05-04 07:05 | 69.78418 | 170.59639 | 1 ft | 12 kts | 167° |
| 2026-05-04 07:05 | 69.78329 | 170.59697 | 1 ft | 13 kts | 168° |
| 2026-05-04 07:05 | 69.78236 | 170.59760 | 2 ft | 13 kts | 167° |
| 2026-05-04 07:05 | 69.78141 | 170.59824 | 2 ft | 14 kts | 167° |
| 2026-05-04 07:06 | 69.77943 | 170.59959 | 2 ft | 15 kts | 167° |
| 2026-05-04 07:06 | 69.77840 | 170.60027 | 2 ft | 15 kts | 167° |
| 2026-05-04 07:06 | 69.77737 | 170.60095 | 2 ft | 15 kts | 167° |
| 2026-05-04 07:07 | 69.77632 | 170.60167 | 3 ft | 15 kts | 167° |
| 2026-05-04 07:08 | 69.77291 | 170.60390 | 3 ft | 0 kts | 347° |
| 2026-05-04 07:09 | 69.77300 | 170.60384 | 3 ft | 12 kts | 347° |
| 2026-05-04 07:09 | 69.77632 | 170.60169 | 3 ft | 83 kts | 348° |
| 2026-05-04 07:09 | 69.78400 | 170.59653 | 2 ft | 141 kts | 347° |
| 2026-05-04 07:09 | 69.79507 | 170.58894 | 144 ft | 175 kts | 345° |
| 2026-05-04 07:10 | 69.80648 | 170.57988 | 840 ft | 172 kts | 345° |
| 2026-05-04 07:10 | 69.81763 | 170.56796 | 1457 ft | 176 kts | 324° |
| 2026-05-04 07:12 | 69.78394 | 170.33212 | 4818 ft | 256 kts | 286° |
| 2026-05-04 07:12 | 69.78992 | 170.28420 | 5587 ft | 260 kts | 291° |
| 2026-05-04 07:12 | 69.79664 | 170.23521 | 6341 ft | 264 kts | 290° |
| 2026-05-04 07:12 | 69.80321 | 170.18530 | 7113 ft | 267 kts | 290° |
| 2026-05-04 07:13 | 69.80952 | 170.13521 | 7863 ft | 270 kts | 289° |
| 2026-05-04 07:13 | 69.81570 | 170.08420 | 8571 ft | 274 kts | 288° |
| 2026-05-04 07:13 | 69.82192 | 170.03174 | 9295 ft | 277 kts | 288° |
| 2026-05-04 07:14 | 69.84735 | 169.81021 | 11308 ft | 313 kts | 288° |
| 2026-05-04 07:14 | 69.85408 | 169.75078 | 11995 ft | 315 kts | 288° |
| 2026-05-04 07:15 | 69.86092 | 169.69014 | 12669 ft | 317 kts | 288° |
| 2026-05-04 07:15 | 69.86769 | 169.62988 | 13309 ft | 319 kts | 288° |
| 2026-05-04 07:15 | 69.87458 | 169.56833 | 13937 ft | 321 kts | 288° |
| 2026-05-04 07:15 | 69.88140 | 169.50716 | 14561 ft | 323 kts | 289° |
| 2026-05-04 07:16 | 69.88833 | 169.44473 | 15155 ft | 326 kts | 289° |
| 2026-05-04 07:16 | 69.89525 | 169.38232 | 15651 ft | 331 kts | 289° |
| 2026-05-04 07:16 | 69.90234 | 169.31831 | 16197 ft | 334 kts | 287° |
| 2026-05-04 07:16 | 69.90932 | 169.25415 | 16774 ft | 335 kts | 287° |
| 2026-05-04 07:17 | 69.91630 | 169.18976 | 17308 ft | 337 kts | 287° |
| 2026-05-04 07:17 | 69.92330 | 169.12515 | 17816 ft | 340 kts | 287° |
| 2026-05-04 07:17 | 69.93045 | 169.05916 | 18327 ft | 342 kts | 288° |
| 2026-05-04 07:17 | 69.93755 | 168.99348 | 18792 ft | 345 kts | 288° |
| 2026-05-04 07:18 | 69.94479 | 168.92642 | 19265 ft | 348 kts | 288° |
| 2026-05-04 07:18 | 69.95194 | 168.85974 | 19725 ft | 351 kts | 287° |
| 2026-05-04 07:18 | 69.95920 | 168.79160 | 20206 ft | 353 kts | 287° |
| 2026-05-04 07:18 | 69.96637 | 168.72398 | 20673 ft | 354 kts | 287° |
| 2026-05-04 07:19 | 69.97379 | 168.65515 | 21137 ft | 356 kts | 289° |
| 2026-05-04 07:19 | 69.98212 | 168.58774 | 21565 ft | 359 kts | 292° |
| 2026-05-04 07:19 | 69.99171 | 168.52010 | 21990 ft | 362 kts | 293° |
| 2026-05-04 07:19 | 70.00150 | 168.45312 | 22365 ft | 366 kts | 293° |
| 2026-05-04 07:20 | 70.01160 | 168.38413 | 22657 ft | 371 kts | 294° |
| 2026-05-04 07:20 | 70.02164 | 168.31538 | 23068 ft | 373 kts | 292° |
| 2026-05-04 07:20 | 70.03183 | 168.24524 | 23487 ft | 375 kts | 292° |
| 2026-05-04 07:20 | 70.04190 | 168.17566 | 23885 ft | 377 kts | 292° |
| 2026-05-04 07:22 | 70.11401 | 167.67189 | 26339 ft | 392 kts | 292° |
| 2026-05-04 07:22 | 70.12442 | 167.59886 | 26676 ft | 393 kts | 292° |
| 2026-05-04 07:23 | 70.13495 | 167.52441 | 27022 ft | 395 kts | 292° |
| 2026-05-04 07:23 | 70.14532 | 167.45061 | 27342 ft | 396 kts | 292° |
| 2026-05-04 07:23 | 70.15582 | 167.37537 | 27654 ft | 398 kts | 292° |
| 2026-05-04 07:23 | 70.16617 | 167.30083 | 27961 ft | 399 kts | 291° |
| 2026-05-04 07:24 | 70.17664 | 167.22493 | 28274 ft | 400 kts | 291° |
| 2026-05-04 07:24 | 70.18696 | 167.14975 | 28527 ft | 401 kts | 291° |
| 2026-05-04 07:24 | 70.19743 | 167.07323 | 28827 ft | 402 kts | 291° |
| 2026-05-04 07:24 | 70.20775 | 166.99751 | 29104 ft | 403 kts | 291° |
| 2026-05-04 07:25 | 70.21819 | 166.92061 | 29383 ft | 404 kts | 291° |
| 2026-05-04 07:26 | 70.29057 | 166.37825 | 30948 ft | 407 kts | 290° |
| 2026-05-04 07:27 | 70.30083 | 166.30008 | 31189 ft | 406 kts | 290° |
| 2026-05-04 07:27 | 70.31090 | 166.22290 | 31347 ft | 406 kts | 289° |
| 2026-05-04 07:27 | 70.32108 | 166.14452 | 31483 ft | 407 kts | 289° |
| 2026-05-04 07:27 | 70.33112 | 166.06699 | 31605 ft | 408 kts | 289° |
| 2026-05-04 07:28 | 70.34128 | 165.98811 | 31737 ft | 409 kts | 289° |
| 2026-05-04 07:28 | 70.35128 | 165.91019 | 31860 ft | 409 kts | 289° |
| 2026-05-04 07:28 | 70.36140 | 165.83101 | 31990 ft | 409 kts | 289° |
| 2026-05-04 07:28 | 70.37135 | 165.75291 | 32133 ft | 409 kts | 289° |
| 2026-05-04 07:29 | 70.38139 | 165.67363 | 32258 ft | 409 kts | 289° |
| 2026-05-04 07:29 | 70.39128 | 165.59538 | 32371 ft | 409 kts | 289° |
| 2026-05-04 07:29 | 70.40126 | 165.51584 | 32499 ft | 410 kts | 289° |
| 2026-05-04 07:29 | 70.41108 | 165.43738 | 32617 ft | 409 kts | 289° |
| 2026-05-04 07:30 | 70.43079 | 165.27856 | 32797 ft | 411 kts | 288° |
| 2026-05-04 07:30 | 70.44068 | 165.19833 | 32922 ft | 412 kts | 288° |
| 2026-05-04 07:30 | 70.45041 | 165.11908 | 33032 ft | 412 kts | 288° |
| 2026-05-04 07:31 | 70.46996 | 164.95865 | 33215 ft | 414 kts | 288° |
| 2026-05-04 07:33 | 70.53764 | 164.39227 | 34019 ft | 415 kts | 288° |
| 2026-05-04 07:33 | 70.54709 | 164.31151 | 34098 ft | 417 kts | 287° |
| 2026-05-04 07:33 | 70.56615 | 164.14749 | 34220 ft | 420 kts | 287° |
| 2026-05-04 07:34 | 70.57574 | 164.06447 | 34328 ft | 420 kts | 287° |
| 2026-05-04 07:34 | 70.58518 | 163.98254 | 34514 ft | 420 kts | 287° |
| 2026-05-04 07:34 | 70.59466 | 163.89969 | 34657 ft | 418 kts | 287° |
| 2026-05-04 07:34 | 70.60397 | 163.81795 | 34778 ft | 418 kts | 287° |
| 2026-05-04 07:35 | 70.61337 | 163.73500 | 34884 ft | 419 kts | 287° |
| 2026-05-04 07:35 | 70.62261 | 163.65300 | 34985 ft | 419 kts | 287° |
| 2026-05-04 07:35 | 70.64115 | 163.48750 | 35194 ft | 420 kts | 287° |
| 2026-05-04 07:36 | 70.65043 | 163.40399 | 35301 ft | 420 kts | 287° |
| 2026-05-04 07:36 | 70.65954 | 163.32159 | 35381 ft | 420 kts | 286° |
| 2026-05-04 07:38 | 70.72283 | 162.73698 | 35985 ft | 422 kts | 286° |
| 2026-05-04 07:38 | 70.73174 | 162.65309 | 35986 ft | 424 kts | 286° |
| 2026-05-04 07:38 | 70.74960 | 162.48360 | 36029 ft | 425 kts | 286° |
| 2026-05-04 07:39 | 70.76728 | 162.31386 | 36021 ft | 425 kts | 285° |
| 2026-05-04 07:39 | 70.78479 | 162.14381 | 36013 ft | 425 kts | 285° |
| 2026-05-04 07:40 | 70.80214 | 161.97345 | 36014 ft | 425 kts | 285° |
| 2026-05-04 07:40 | 70.81944 | 161.80284 | 36031 ft | 425 kts | 285° |
| 2026-05-04 07:41 | 70.83648 | 161.63161 | 36036 ft | 426 kts | 284° |
| 2026-05-04 07:41 | 70.85337 | 161.46034 | 35990 ft | 425 kts | 285° |
| 2026-05-04 07:42 | 70.87012 | 161.28877 | 36013 ft | 425 kts | 284° |
| 2026-05-04 07:42 | 70.88670 | 161.11667 | 36026 ft | 426 kts | 284° |
| 2026-05-04 07:43 | 70.90317 | 160.94412 | 36006 ft | 425 kts | 284° |
| 2026-05-04 07:43 | 70.91948 | 160.77132 | 36011 ft | 426 kts | 284° |
| 2026-05-04 07:44 | 70.93564 | 160.59833 | 35994 ft | 425 kts | 284° |
| 2026-05-04 07:44 | 70.95164 | 160.42479 | 36027 ft | 427 kts | 283° |
| 2026-05-04 07:45 | 70.96750 | 160.25075 | 36005 ft | 426 kts | 283° |
| 2026-05-04 07:45 | 70.98315 | 160.07677 | 36013 ft | 426 kts | 283° |
| 2026-05-04 07:46 | 70.99868 | 159.90236 | 35989 ft | 427 kts | 283° |
| 2026-05-04 07:46 | 71.01408 | 159.72736 | 36000 ft | 427 kts | 283° |
| 2026-05-04 07:47 | 71.02935 | 159.55197 | 35998 ft | 428 kts | 283° |
| 2026-05-04 07:50 | 71.10077 | 158.58417 | 36016 ft | 428 kts | 279° |